Gennaro Ievoli — 9HA3007 — position and weather

sailwx.info

Track history (hours):
 
Tides and Currents Weather Stations Pressure Air Temp Water Temp Dewpoint Dewpoint Depression Visibility Wind Speed Wind Dir Waves Ship Positions

Gennaro Ievoli

Last reported at 2017-Jun-26 20:30 UTC. Time now 2017-Jun-26 20:47 UTC.
Position N 01°13' E 103°39'.

Length 170 m; draft 8.1 m.

Type: Ship (hazmat cat B). MMSI: 229031000.

Date/timePositionNaut miles runAvg speedWind from/ knotsBaromVisibWave heightAir tempDewpointWater temp
2017-Jun-26 20:30N 01°13' E 103°39'0 0.1
2017-Jun-26 19:57N 01°13' E 103°39'0 0.1
2017-Jun-26 19:27N 01°13' E 103°39'0 0.0
2017-Jun-26 19:00N 01°13' E 103°39'0 0.2
2017-Jun-26 18:30N 01°13' E 103°39'0 0.0
2017-Jun-26 18:00N 01°13' E 103°39'0 0.0
2017-Jun-26 17:30N 01°13' E 103°39'0 0.0
2017-Jun-26 17:00N 01°13' E 103°39'0 0.1
2017-Jun-26 16:30N 01°13' E 103°39'0 0.1
2017-Jun-26 15:57N 01°13' E 103°39'0 0.1
2017-Jun-26 15:22N 01°13' E 103°39'0 0.4
2017-Jun-26 15:00N 01°13' E 103°39'2 4.7
2017-Jun-26 14:30N 01°14' E 103°41'2 1.9
2017-Jun-26 13:19N 01°16' E 103°41'0 0.0
2017-Jun-26 12:52N 01°16' E 103°41'0 0.0
2017-Jun-26 12:25N 01°16' E 103°41'0 0.0
2017-Jun-26 11:58N 01°16' E 103°41'0 0.0
2017-Jun-26 11:28N 01°16' E 103°41'0 0.0
2017-Jun-26 10:55N 01°16' E 103°41'0 0.0
2017-Jun-26 10:25N 01°16' E 103°41'0 0.0
2017-Jun-26 09:55N 01°16' E 103°41'0 0.0
2017-Jun-26 09:28N 01°16' E 103°41'0 0.0
2017-Jun-26 08:52N 01°16' E 103°41'0 0.0
2017-Jun-26 08:22N 01°16' E 103°41'0 0.0
2017-Jun-26 07:49N 01°16' E 103°41'0 0.0
2017-Jun-26 07:28N 01°16' E 103°41'0 0.0
2017-Jun-26 06:58N 01°16' E 103°41'0 0.0
2017-Jun-26 06:28N 01°16' E 103°41'0 0.0
2017-Jun-26 05:58N 01°16' E 103°41'0 0.0
2017-Jun-26 05:28N 01°16' E 103°41'0 0.0
2017-Jun-26 04:58N 01°16' E 103°41'0 0.0
2017-Jun-26 04:28N 01°16' E 103°41'0 0.0
2017-Jun-26 03:58N 01°16' E 103°41'0 0.0
2017-Jun-26 03:28N 01°16' E 103°41'0 0.0
2017-Jun-26 02:58N 01°16' E 103°41'0 0.1
2017-Jun-26 02:30N 01°16' E 103°41'2 3.4
2017-Jun-26 02:00N 01°15' E 103°42'1 1.2
2017-Jun-26 01:29N 01°15' E 103°42'0 0.0
2017-Jun-26 00:53N 01°15' E 103°42'0 0.0
2017-Jun-26 00:29N 01°15' E 103°42'0 0.0
2017-Jun-25 23:56N 01°15' E 103°42'0 0.0
2017-Jun-25 23:29N 01°15' E 103°42'0 0.0
2017-Jun-25 23:00N 01°15' E 103°42'0 0.0
2017-Jun-25 22:29N 01°15' E 103°42'0 0.0
2017-Jun-25 21:53N 01°15' E 103°42'0 0.0
2017-Jun-25 21:29N 01°15' E 103°42'0 0.0
2017-Jun-25 20:56N 01°15' E 103°42'0 0.0
2017-Jun-25 20:29N 01°15' E 103°42'0 0.0
2017-Jun-25 19:47N 01°15' E 103°42'0 0.0
2017-Jun-25 19:29N 01°15' E 103°42'0 0.0
2017-Jun-25 19:00N 01°15' E 103°42'0 0.0
2017-Jun-25 18:29N 01°15' E 103°42'0 0.0
2017-Jun-25 17:56N 01°15' E 103°42'0 0.0
2017-Jun-25 17:29N 01°15' E 103°42'0 0.0
2017-Jun-25 16:56N 01°15' E 103°42'0 0.0
2017-Jun-25 16:26N 01°15' E 103°42'0 0.0
2017-Jun-25 15:50N 01°15' E 103°42'0 0.0
2017-Jun-25 15:29N 01°15' E 103°42'0 0.0
2017-Jun-25 14:56N 01°15' E 103°42'0 0.0
2017-Jun-25 14:29N 01°15' E 103°42'0 0.0
2017-Jun-25 13:29N 01°15' E 103°42'0 0.0
2017-Jun-25 12:56N 01°15' E 103°42'0 0.0
2017-Jun-25 12:29N 01°15' E 103°42'0 0.0
2017-Jun-25 11:57N 01°15' E 103°42'0 0.3
2017-Jun-25 11:30N 01°15' E 103°42'3 5.6
2017-Jun-25 11:00N 01°13' E 103°41'0 0.1
2017-Jun-25 10:25N 01°12' E 103°41'0 0.0
2017-Jun-25 09:58N 01°12' E 103°41'0 0.0
2017-Jun-25 09:28N 01°12' E 103°41'0 0.0
2017-Jun-25 08:55N 01°12' E 103°41'0 0.0
2017-Jun-25 08:25N 01°12' E 103°41'0 0.0
2017-Jun-25 07:58N 01°12' E 103°41'0 0.0
2017-Jun-25 07:28N 01°12' E 103°41'0 0.0
2017-Jun-25 06:58N 01°12' E 103°41'0 0.3
2017-Jun-25 06:30N 01°13' E 103°41'2 3.1
2017-Jun-25 06:00N 01°11' E 103°40'4 7.0
2017-Jun-25 05:30N 01°09' E 103°43'510.0
2017-Jun-25 05:01N 01°10' E 103°48'613.0
2017-Jun-25 04:31N 01°13' E 103°53'612.2
2017-Jun-25 04:00N 01°16' E 103°59'612.0
2017-Jun-25 03:30N 01°16' E 104°05'  
2017-Jun-18 16:26N 01°15' E 104°04'614.4
2017-Jun-18 16:00N 01°14' E 103°58'714.0
2017-Jun-18 15:30N 01°11' E 103°51'713.8
2017-Jun-18 15:00N 01°07' E 103°45'1111.3
2017-Jun-18 14:00N 01°06' E 103°34'714.9
2017-Jun-18 13:30N 01°10' E 103°28'714.2
2017-Jun-18 13:00N 01°14' E 103°22'  
Track history (hours):
 
Tides and Currents Weather Stations Pressure Air Temp Water Temp Dewpoint Dewpoint Depression Visibility Wind Speed Wind Dir Waves Ship Positions

Gennaro Ievoli

Last reported at 2017-Jun-26 20:30 UTC. Time now 2017-Jun-26 20:47 UTC.
Position N 01°13' E 103°39'.

Length 170 m; draft 8.1 m.

Type: Ship (hazmat cat B). MMSI: 229031000.

Date/timePositionNaut miles runAvg speedWind from/ knotsBaromVisibWave heightAir tempDewpointWater temp
2017-Jun-26 20:30N 01°13' E 103°39'0 0.1
2017-Jun-26 19:57N 01°13' E 103°39'0 0.1
2017-Jun-26 19:27N 01°13' E 103°39'0 0.0
2017-Jun-26 19:00N 01°13' E 103°39'0 0.2
2017-Jun-26 18:30N 01°13' E 103°39'0 0.0
2017-Jun-26 18:00N 01°13' E 103°39'0 0.0
2017-Jun-26 17:30N 01°13' E 103°39'0 0.0
2017-Jun-26 17:00N 01°13' E 103°39'0 0.1
2017-Jun-26 16:30N 01°13' E 103°39'0 0.1
2017-Jun-26 15:57N 01°13' E 103°39'0 0.1
2017-Jun-26 15:22N 01°13' E 103°39'0 0.4
2017-Jun-26 15:00N 01°13' E 103°39'2 4.7
2017-Jun-26 14:30N 01°14' E 103°41'2 1.9
2017-Jun-26 13:19N 01°16' E 103°41'0 0.0
2017-Jun-26 12:52N 01°16' E 103°41'0 0.0
2017-Jun-26 12:25N 01°16' E 103°41'0 0.0
2017-Jun-26 11:58N 01°16' E 103°41'0 0.0
2017-Jun-26 11:28N 01°16' E 103°41'0 0.0
2017-Jun-26 10:55N 01°16' E 103°41'0 0.0
2017-Jun-26 10:25N 01°16' E 103°41'0 0.0
2017-Jun-26 09:55N 01°16' E 103°41'0 0.0
2017-Jun-26 09:28N 01°16' E 103°41'0 0.0
2017-Jun-26 08:52N 01°16' E 103°41'0 0.0
2017-Jun-26 08:22N 01°16' E 103°41'0 0.0
2017-Jun-26 07:49N 01°16' E 103°41'0 0.0
2017-Jun-26 07:28N 01°16' E 103°41'0 0.0
2017-Jun-26 06:58N 01°16' E 103°41'0 0.0
2017-Jun-26 06:28N 01°16' E 103°41'0 0.0
2017-Jun-26 05:58N 01°16' E 103°41'0 0.0
2017-Jun-26 05:28N 01°16' E 103°41'0 0.0
2017-Jun-26 04:58N 01°16' E 103°41'0 0.0
2017-Jun-26 04:28N 01°16' E 103°41'0 0.0
2017-Jun-26 03:58N 01°16' E 103°41'0 0.0
2017-Jun-26 03:28N 01°16' E 103°41'0 0.0
2017-Jun-26 02:58N 01°16' E 103°41'0 0.1
2017-Jun-26 02:30N 01°16' E 103°41'2 3.4
2017-Jun-26 02:00N 01°15' E 103°42'1 1.2
2017-Jun-26 01:29N 01°15' E 103°42'0 0.0
2017-Jun-26 00:53N 01°15' E 103°42'0 0.0
2017-Jun-26 00:29N 01°15' E 103°42'0 0.0
2017-Jun-25 23:56N 01°15' E 103°42'0 0.0
2017-Jun-25 23:29N 01°15' E 103°42'0 0.0
2017-Jun-25 23:00N 01°15' E 103°42'0 0.0
2017-Jun-25 22:29N 01°15' E 103°42'0 0.0
2017-Jun-25 21:53N 01°15' E 103°42'0 0.0
2017-Jun-25 21:29N 01°15' E 103°42'0 0.0
2017-Jun-25 20:56N 01°15' E 103°42'0 0.0
2017-Jun-25 20:29N 01°15' E 103°42'0 0.0
2017-Jun-25 19:47N 01°15' E 103°42'0 0.0
2017-Jun-25 19:29N 01°15' E 103°42'0 0.0
2017-Jun-25 19:00N 01°15' E 103°42'0 0.0
2017-Jun-25 18:29N 01°15' E 103°42'0 0.0
2017-Jun-25 17:56N 01°15' E 103°42'0 0.0
2017-Jun-25 17:29N 01°15' E 103°42'0 0.0
2017-Jun-25 16:56N 01°15' E 103°42'0 0.0
2017-Jun-25 16:26N 01°15' E 103°42'0 0.0
2017-Jun-25 15:50N 01°15' E 103°42'0 0.0
2017-Jun-25 15:29N 01°15' E 103°42'0 0.0
2017-Jun-25 14:56N 01°15' E 103°42'0 0.0
2017-Jun-25 14:29N 01°15' E 103°42'0 0.0
2017-Jun-25 13:29N 01°15' E 103°42'0 0.0
2017-Jun-25 12:56N 01°15' E 103°42'0 0.0
2017-Jun-25 12:29N 01°15' E 103°42'0 0.0
2017-Jun-25 11:57N 01°15' E 103°42'0 0.3
2017-Jun-25 11:30N 01°15' E 103°42'3 5.6
2017-Jun-25 11:00N 01°13' E 103°41'0 0.1
2017-Jun-25 10:25N 01°12' E 103°41'0 0.0
2017-Jun-25 09:58N 01°12' E 103°41'0 0.0
2017-Jun-25 09:28N 01°12' E 103°41'0 0.0
2017-Jun-25 08:55N 01°12' E 103°41'0 0.0
2017-Jun-25 08:25N 01°12' E 103°41'0 0.0
2017-Jun-25 07:58N 01°12' E 103°41'0 0.0
2017-Jun-25 07:28N 01°12' E 103°41'0 0.0
2017-Jun-25 06:58N 01°12' E 103°41'0 0.3
2017-Jun-25 06:30N 01°13' E 103°41'2 3.1
2017-Jun-25 06:00N 01°11' E 103°40'4 7.0
2017-Jun-25 05:30N 01°09' E 103°43'510.0
2017-Jun-25 05:01N 01°10' E 103°48'613.0
2017-Jun-25 04:31N 01°13' E 103°53'612.2
2017-Jun-25 04:00N 01°16' E 103°59'612.0
2017-Jun-25 03:30N 01°16' E 104°05'  
2017-Jun-18 16:26N 01°15' E 104°04'614.4
2017-Jun-18 16:00N 01°14' E 103°58'714.0
2017-Jun-18 15:30N 01°11' E 103°51'713.8
2017-Jun-18 15:00N 01°07' E 103°45'1111.3
2017-Jun-18 14:00N 01°06' E 103°34'714.9
2017-Jun-18 13:30N 01°10' E 103°28'714.2
2017-Jun-18 13:00N 01°14' E 103°22'  

Dump ship's entire track history